ADDS METAR Data INFO
IDs: Format: Raw Decoded Include TAF

Data at: 0332 UTC 16 Dec 2017

KPTV 160256Z AUTO 13005KT 4SM HZ CLR 07/02 A3001 RMK AO2 SLP179 T00720022 58006
KPTV 160156Z AUTO 00000KT 4SM HZ CLR 11/03 A3002 RMK AO2 SLP182 T01060028
KPTV 160056Z AUTO 32004KT 3SM HZ CLR 13/02 A3003 RMK AO2 SLP183 T01330017
KPTV 152356Z AUTO 30003KT 4SM HZ CLR 18/02 A3003 RMK AO2 SLP186 T01780017 10194 20100 56025
KPTV 152256Z AUTO 31003KT 4SM HZ CLR 19/02 A3005 RMK AO2 SLP192 T01940022
KPTV 152156Z AUTO 00000KT 4SM HZ CLR 19/02 A3007 RMK AO2 SLP199 T01890017
KPTV 152056Z AUTO 00000KT 3SM HZ CLR 16/02 A3011 RMK AO2 SLP211 T01560017 58034
KPTV 151956Z AUTO 00000KT 3SM HZ CLR 14/02 A3015 RMK AO2 SLP223 T01390022
KPTV 151856Z AUTO 23005KT 3SM HZ CLR 13/02 A3019 RMK AO2 SLP236 T01280022 TSNO
KPTV 151756Z AUTO 18005KT 3SM HZ CLR 10/02 A3021 RMK AO2 SLP244 T01000017 10100 21017 50002
KPTV 151656Z AUTO 19003KT 5SM HZ CLR 06/M01 A3022 RMK AO2 SLP247 T00561006
KPTV 151556Z AUTO 00000KT 4SM HZ CLR 01/M03 A3020 RMK AO2 SLP240 T00061028 FZRANO
KPTV 151456Z AUTO 00000KT 3SM BR CLR M01/M03 A3020 RMK AO2 SLP242 T10111028 53004 FZRANO TSNO
KPTV 151356Z AUTO 11003KT 5SM BR CLR M02/M03 A3018 RMK AO2 SLP234 T10171033 FZRANO
KPTV 151256Z AUTO 00000KT 4SM HZ CLR 01/M02 A3018 RMK AO2 SLP234 T00061022 FZRANO TSNO
KPTV 151156Z AUTO 22003KT 4SM HZ CLR 01/M02 A3019 RMK AO2 SLP238 T00061022 10050 21006 58003 FZRANO
KPTV 151126Z AUTO 00000KT 5SM BR CLR 00/M02 A3019 RMK AO2 FZRANO
KPTV 151114Z AUTO 16004KT 2 1/2SM BR CLR M01/M03 A3020 RMK AO2 FZRANO
KPTV 151056Z AUTO 10004KT 1SM BR CLR 01/M01 A3020 RMK AO2 SLP243 T00111011 FZRANO
KPTV 151047Z AUTO 09003KT 1SM HZ CLR 02/M01 A3020 RMK AO2 FZRANO
KPTV 151040Z AUTO 09003KT 1/2SM HZ CLR 02/M01 A3020 RMK AO2 FZRANO TSNO
KPTV 151012Z AUTO 09005KT 3/4SM HZ CLR 02/M01 A3020 RMK AO2 FZRANO
KPTV 151008Z AUTO 09005KT 1 3/4SM HZ CLR 02/M01 A3020 RMK AO2 FZRANO
KPTV 150956Z AUTO 08004KT 5SM HZ CLR 03/M01 A3020 RMK AO2 SLP242 T00281006
KPTV 150836Z AUTO 00000KT 4SM HZ CLR 02/M01 A3020 RMK AO2 FZRANO
KPTV 150824Z AUTO 00000KT 2 1/2SM HZ CLR 03/M02 A3020 RMK AO2
KPTV 150821Z AUTO 00000KT 1SM HZ CLR 03/M01 A3020 RMK AO2
KPTV 150756Z AUTO 07003KT 1/2SM HZ CLR 04/M01 A3019 RMK AO2 SLP241 T00391006
KPTV 150656Z AUTO 10006KT 1/4SM HZ CLR 04/01 A3021 RMK AO2 SLP243 T00390006 401781006
KPTV 150641Z AUTO 10006KT 1/4SM HZ CLR 04/01 A3021 RMK AO2
KPTV 150602Z AUTO 11003KT 1SM HZ CLR 04/01 A3021 RMK AO2
KPTV 150556Z AUTO 12003KT 1/2SM HZ CLR 04/01 A3021 RMK AO2 SLP246 T00390006 10161 20039 53007
KPTV 150548Z AUTO 10004KT 1/4SM HZ CLR 04/01 A3021 RMK AO2
KPTV 150538Z AUTO 10004KT 3/4SM HZ CLR 04/01 A3021 RMK AO2
KPTV 150523Z AUTO 10006KT 1/4SM HZ CLR 04/01 A3020 RMK AO2
KPTV 150508Z AUTO 10005KT 1/2SM HZ CLR 04/01 A3020 RMK AO2
KPTV 150505Z AUTO 11006KT 1SM HZ CLR 04/01 A3020 RMK AO2
KPTV 150456Z AUTO 12006KT 2 1/2SM HZ CLR 04/01 A3020 RMK AO2 SLP241 T00440006
KPTV 150356Z AUTO 15004KT 3SM HZ CLR 05/02 A3020 RMK AO2 SLP239 T00500017